sensor_id;sensor_type;location;lat;lon;timestamp;P1;durP1;ratioP1;P2;durP2;ratioP2
54909;SDS011;63189;51.240;9.964;2024-01-16T00:01:52;8.15;;;3.22;;
54909;SDS011;63189;51.240;9.964;2024-01-16T00:04:17;5.38;;;2.60;;
54909;SDS011;63189;51.240;9.964;2024-01-16T00:06:42;5.80;;;2.67;;
54909;SDS011;63189;51.240;9.964;2024-01-16T00:09:08;7.95;;;2.78;;
54909;SDS011;63189;51.240;9.964;2024-01-16T00:11:44;8.13;;;2.90;;
54909;SDS011;63189;51.240;9.964;2024-01-16T00:14:09;5.32;;;2.83;;
54909;SDS011;63189;51.240;9.964;2024-01-16T00:16:42;6.88;;;2.50;;
54909;SDS011;63189;51.240;9.964;2024-01-16T00:19:10;4.95;;;2.50;;
54909;SDS011;63189;51.240;9.964;2024-01-16T00:21:40;6.88;;;2.58;;
54909;SDS011;63189;51.240;9.964;2024-01-16T00:24:06;10.77;;;2.97;;
54909;SDS011;63189;51.240;9.964;2024-01-16T00:26:32;6.00;;;2.58;;
54909;SDS011;63189;51.240;9.964;2024-01-16T00:28:57;8.63;;;2.55;;
54909;SDS011;63189;51.240;9.964;2024-01-16T00:31:23;7.35;;;2.50;;
54909;SDS011;63189;51.240;9.964;2024-01-16T00:33:48;6.57;;;2.63;;
54909;SDS011;63189;51.240;9.964;2024-01-16T00:36:14;9.45;;;3.05;;
54909;SDS011;63189;51.240;9.964;2024-01-16T00:38:40;4.20;;;2.40;;
54909;SDS011;63189;51.240;9.964;2024-01-16T00:41:05;5.57;;;2.35;;
54909;SDS011;63189;51.240;9.964;2024-01-16T00:43:31;7.07;;;2.63;;
54909;SDS011;63189;51.240;9.964;2024-01-16T00:45:57;6.53;;;2.53;;
54909;SDS011;63189;51.240;9.964;2024-01-16T00:48:22;7.50;;;2.88;;
54909;SDS011;63189;51.240;9.964;2024-01-16T00:50:48;4.82;;;2.45;;
54909;SDS011;63189;51.240;9.964;2024-01-16T00:53:15;10.15;;;2.60;;
54909;SDS011;63189;51.240;9.964;2024-01-16T00:55:41;5.10;;;2.85;;
54909;SDS011;63189;51.240;9.964;2024-01-16T00:58:07;7.60;;;2.92;;
54909;SDS011;63189;51.240;9.964;2024-01-16T01:00:32;10.23;;;2.83;;
54909;SDS011;63189;51.240;9.964;2024-01-16T01:02:58;6.35;;;2.47;;
54909;SDS011;63189;51.240;9.964;2024-01-16T01:05:24;5.15;;;2.40;;
54909;SDS011;63189;51.240;9.964;2024-01-16T01:07:53;8.70;;;3.20;;
54909;SDS011;63189;51.240;9.964;2024-01-16T01:10:19;7.55;;;3.53;;
54909;SDS011;63189;51.240;9.964;2024-01-16T01:12:45;9.57;;;2.75;;
54909;SDS011;63189;51.240;9.964;2024-01-16T01:15:10;7.35;;;2.88;;
54909;SDS011;63189;51.240;9.964;2024-01-16T01:17:35;5.10;;;2.63;;
54909;SDS011;63189;51.240;9.964;2024-01-16T01:20:01;6.93;;;2.50;;
54909;SDS011;63189;51.240;9.964;2024-01-16T01:22:26;5.97;;;2.63;;
54909;SDS011;63189;51.240;9.964;2024-01-16T01:24:53;5.88;;;2.83;;
54909;SDS011;63189;51.240;9.964;2024-01-16T01:27:18;8.57;;;2.95;;
54909;SDS011;63189;51.240;9.964;2024-01-16T01:29:43;6.78;;;2.78;;
54909;SDS011;63189;51.240;9.964;2024-01-16T01:32:09;7.18;;;2.83;;
54909;SDS011;63189;51.240;9.964;2024-01-16T01:34:34;5.90;;;2.42;;
54909;SDS011;63189;51.240;9.964;2024-01-16T01:37:00;4.75;;;2.45;;
54909;SDS011;63189;51.240;9.964;2024-01-16T01:39:25;10.40;;;2.88;;
54909;SDS011;63189;51.240;9.964;2024-01-16T01:41:51;4.50;;;2.35;;
54909;SDS011;63189;51.240;9.964;2024-01-16T01:44:16;6.93;;;2.58;;
54909;SDS011;63189;51.240;9.964;2024-01-16T01:46:41;5.53;;;2.38;;
54909;SDS011;63189;51.240;9.964;2024-01-16T01:49:08;5.75;;;2.50;;
54909;SDS011;63189;51.240;9.964;2024-01-16T01:51:33;8.27;;;3.22;;
54909;SDS011;63189;51.240;9.964;2024-01-16T01:53:59;7.47;;;2.90;;
54909;SDS011;63189;51.240;9.964;2024-01-16T01:56:26;5.00;;;2.65;;
54909;SDS011;63189;51.240;9.964;2024-01-16T01:58:53;6.95;;;2.67;;
54909;SDS011;63189;51.240;9.964;2024-01-16T02:01:21;6.38;;;2.58;;
54909;SDS011;63189;51.240;9.964;2024-01-16T02:03:47;8.00;;;3.70;;
54909;SDS011;63189;51.240;9.964;2024-01-16T02:06:15;3.70;;;2.47;;
54909;SDS011;63189;51.240;9.964;2024-01-16T02:08:41;7.75;;;2.30;;
54909;SDS011;63189;51.240;9.964;2024-01-16T02:11:07;7.13;;;3.25;;
54909;SDS011;63189;51.240;9.964;2024-01-16T02:13:32;5.32;;;2.33;;
54909;SDS011;63189;51.240;9.964;2024-01-16T02:15:58;7.03;;;2.25;;
54909;SDS011;63189;51.240;9.964;2024-01-16T02:18:23;4.95;;;2.47;;
54909;SDS011;63189;51.240;9.964;2024-01-16T02:20:49;6.95;;;2.90;;
54909;SDS011;63189;51.240;9.964;2024-01-16T02:23:14;4.38;;;2.40;;
54909;SDS011;63189;51.240;9.964;2024-01-16T02:25:43;5.43;;;2.60;;
54909;SDS011;63189;51.240;9.964;2024-01-16T02:28:09;5.20;;;2.78;;
54909;SDS011;63189;51.240;9.964;2024-01-16T02:30:35;7.20;;;3.33;;
54909;SDS011;63189;51.240;9.964;2024-01-16T02:33:00;7.05;;;3.10;;
54909;SDS011;63189;51.240;9.964;2024-01-16T02:35:26;5.43;;;2.90;;
54909;SDS011;63189;51.240;9.964;2024-01-16T02:37:51;6.55;;;2.92;;
54909;SDS011;63189;51.240;9.964;2024-01-16T02:40:16;6.88;;;3.50;;
54909;SDS011;63189;51.240;9.964;2024-01-16T02:42:42;6.65;;;3.10;;
54909;SDS011;63189;51.240;9.964;2024-01-16T02:45:07;6.72;;;3.33;;
54909;SDS011;63189;51.240;9.964;2024-01-16T02:47:33;4.53;;;2.60;;
54909;SDS011;63189;51.240;9.964;2024-01-16T02:49:59;6.75;;;2.90;;
54909;SDS011;63189;51.240;9.964;2024-01-16T02:52:25;6.93;;;3.00;;
54909;SDS011;63189;51.240;9.964;2024-01-16T02:54:50;10.75;;;3.30;;
54909;SDS011;63189;51.240;9.964;2024-01-16T02:57:16;8.95;;;3.03;;
54909;SDS011;63189;51.240;9.964;2024-01-16T02:59:44;9.00;;;2.95;;
54909;SDS011;63189;51.240;9.964;2024-01-16T03:02:10;8.10;;;3.30;;
54909;SDS011;63189;51.240;9.964;2024-01-16T03:04:36;6.00;;;3.08;;
54909;SDS011;63189;51.240;9.964;2024-01-16T03:07:02;7.68;;;3.15;;
54909;SDS011;63189;51.240;9.964;2024-01-16T03:09:27;8.68;;;2.88;;
54909;SDS011;63189;51.240;9.964;2024-01-16T03:11:52;7.75;;;2.90;;
54909;SDS011;63189;51.240;9.964;2024-01-16T03:14:18;7.32;;;2.35;;
54909;SDS011;63189;51.240;9.964;2024-01-16T03:16:43;7.80;;;2.95;;
54909;SDS011;63189;51.240;9.964;2024-01-16T03:19:09;7.07;;;2.83;;
54909;SDS011;63189;51.240;9.964;2024-01-16T03:21:35;6.10;;;2.42;;
54909;SDS011;63189;51.240;9.964;2024-01-16T03:24:00;6.55;;;2.30;;
54909;SDS011;63189;51.240;9.964;2024-01-16T03:26:25;6.28;;;2.47;;
54909;SDS011;63189;51.240;9.964;2024-01-16T03:28:51;7.10;;;2.63;;
54909;SDS011;63189;51.240;9.964;2024-01-16T03:31:16;10.38;;;2.90;;
54909;SDS011;63189;51.240;9.964;2024-01-16T03:33:42;6.80;;;2.65;;
54909;SDS011;63189;51.240;9.964;2024-01-16T03:36:08;6.15;;;2.28;;
54909;SDS011;63189;51.240;9.964;2024-01-16T03:38:35;7.38;;;2.85;;
54909;SDS011;63189;51.240;9.964;2024-01-16T03:41:02;6.20;;;2.60;;
54909;SDS011;63189;51.240;9.964;2024-01-16T03:43:28;5.82;;;2.28;;
54909;SDS011;63189;51.240;9.964;2024-01-16T03:45:56;5.85;;;2.50;;
54909;SDS011;63189;51.240;9.964;2024-01-16T03:48:22;11.55;;;3.03;;
54909;SDS011;63189;51.240;9.964;2024-01-16T03:50:47;8.80;;;3.33;;
54909;SDS011;63189;51.240;9.964;2024-01-16T03:53:13;11.93;;;3.42;;
54909;SDS011;63189;51.240;9.964;2024-01-16T03:55:38;12.15;;;3.42;;
54909;SDS011;63189;51.240;9.964;2024-01-16T03:58:04;9.80;;;3.80;;
54909;SDS011;63189;51.240;9.964;2024-01-16T04:00:29;8.25;;;3.30;;
54909;SDS011;63189;51.240;9.964;2024-01-16T04:02:54;7.43;;;3.00;;
54909;SDS011;63189;51.240;9.964;2024-01-16T04:05:20;8.90;;;3.28;;
54909;SDS011;63189;51.240;9.964;2024-01-16T04:07:45;9.85;;;3.25;;
54909;SDS011;63189;51.240;9.964;2024-01-16T04:10:11;6.22;;;3.15;;
54909;SDS011;63189;51.240;9.964;2024-01-16T04:12:36;8.30;;;3.25;;
54909;SDS011;63189;51.240;9.964;2024-01-16T04:15:02;7.57;;;3.22;;
54909;SDS011;63189;51.240;9.964;2024-01-16T04:17:28;7.22;;;3.42;;
54909;SDS011;63189;51.240;9.964;2024-01-16T04:19:54;11.43;;;3.63;;
54909;SDS011;63189;51.240;9.964;2024-01-16T04:22:19;6.82;;;3.00;;
54909;SDS011;63189;51.240;9.964;2024-01-16T04:24:44;10.05;;;3.15;;
54909;SDS011;63189;51.240;9.964;2024-01-16T04:27:10;8.30;;;3.92;;
54909;SDS011;63189;51.240;9.964;2024-01-16T04:29:37;9.82;;;3.30;;
54909;SDS011;63189;51.240;9.964;2024-01-16T04:32:02;7.43;;;3.58;;
54909;SDS011;63189;51.240;9.964;2024-01-16T04:34:29;9.63;;;3.75;;
54909;SDS011;63189;51.240;9.964;2024-01-16T04:36:54;11.13;;;4.47;;
54909;SDS011;63189;51.240;9.964;2024-01-16T04:39:19;8.75;;;3.40;;
54909;SDS011;63189;51.240;9.964;2024-01-16T04:41:47;6.47;;;3.80;;
54909;SDS011;63189;51.240;9.964;2024-01-16T04:44:13;6.90;;;3.45;;
54909;SDS011;63189;51.240;9.964;2024-01-16T04:46:38;7.60;;;3.90;;
54909;SDS011;63189;51.240;9.964;2024-01-16T04:49:04;12.25;;;4.03;;
54909;SDS011;63189;51.240;9.964;2024-01-16T04:51:29;5.28;;;3.20;;
54909;SDS011;63189;51.240;9.964;2024-01-16T04:53:54;12.23;;;3.60;;
54909;SDS011;63189;51.240;9.964;2024-01-16T04:56:20;7.93;;;3.53;;
54909;SDS011;63189;51.240;9.964;2024-01-16T04:58:46;5.32;;;2.58;;
54909;SDS011;63189;51.240;9.964;2024-01-16T05:01:12;8.95;;;3.05;;
54909;SDS011;63189;51.240;9.964;2024-01-16T05:03:37;7.63;;;3.47;;
54909;SDS011;63189;51.240;9.964;2024-01-16T05:06:03;8.70;;;3.58;;
54909;SDS011;63189;51.240;9.964;2024-01-16T05:08:28;7.70;;;3.17;;
54909;SDS011;63189;51.240;9.964;2024-01-16T05:10:55;10.60;;;3.40;;
54909;SDS011;63189;51.240;9.964;2024-01-16T05:13:20;8.70;;;3.45;;
54909;SDS011;63189;51.240;9.964;2024-01-16T05:15:46;6.35;;;3.08;;
54909;SDS011;63189;51.240;9.964;2024-01-16T05:18:11;7.20;;;2.92;;
54909;SDS011;63189;51.240;9.964;2024-01-16T05:20:36;6.70;;;2.90;;
54909;SDS011;63189;51.240;9.964;2024-01-16T05:23:02;8.93;;;2.80;;
54909;SDS011;63189;51.240;9.964;2024-01-16T05:25:27;10.35;;;3.20;;
54909;SDS011;63189;51.240;9.964;2024-01-16T05:27:53;8.85;;;3.35;;
54909;SDS011;63189;51.240;9.964;2024-01-16T05:30:18;5.30;;;2.67;;
54909;SDS011;63189;51.240;9.964;2024-01-16T05:32:44;36.45;;;19.00;;
54909;SDS011;63189;51.240;9.964;2024-01-16T05:35:09;7.32;;;3.70;;
54909;SDS011;63189;51.240;9.964;2024-01-16T05:37:35;8.60;;;3.65;;
54909;SDS011;63189;51.240;9.964;2024-01-16T05:40:01;8.88;;;3.53;;
54909;SDS011;63189;51.240;9.964;2024-01-16T05:42:28;12.02;;;3.42;;
54909;SDS011;63189;51.240;9.964;2024-01-16T05:44:54;9.23;;;2.83;;
54909;SDS011;63189;51.240;9.964;2024-01-16T05:47:19;6.47;;;3.00;;
54909;SDS011;63189;51.240;9.964;2024-01-16T05:49:45;6.15;;;3.10;;
54909;SDS011;63189;51.240;9.964;2024-01-16T05:52:13;6.93;;;2.95;;
54909;SDS011;63189;51.240;9.964;2024-01-16T05:54:38;6.65;;;2.58;;
54909;SDS011;63189;51.240;9.964;2024-01-16T05:57:04;6.57;;;2.75;;
54909;SDS011;63189;51.240;9.964;2024-01-16T05:59:29;6.45;;;2.90;;
54909;SDS011;63189;51.240;9.964;2024-01-16T06:01:55;8.77;;;2.83;;
54909;SDS011;63189;51.240;9.964;2024-01-16T06:04:20;7.22;;;3.17;;
54909;SDS011;63189;51.240;9.964;2024-01-16T06:06:46;7.72;;;3.47;;
54909;SDS011;63189;51.240;9.964;2024-01-16T06:09:12;6.90;;;3.00;;
54909;SDS011;63189;51.240;9.964;2024-01-16T06:11:39;6.88;;;3.05;;
54909;SDS011;63189;51.240;9.964;2024-01-16T06:14:08;9.52;;;3.17;;
54909;SDS011;63189;51.240;9.964;2024-01-16T06:16:34;6.78;;;3.25;;
54909;SDS011;63189;51.240;9.964;2024-01-16T06:19:00;5.05;;;2.55;;
54909;SDS011;63189;51.240;9.964;2024-01-16T06:21:25;6.72;;;3.10;;
54909;SDS011;63189;51.240;9.964;2024-01-16T06:23:51;6.93;;;3.35;;
54909;SDS011;63189;51.240;9.964;2024-01-16T06:26:17;9.65;;;3.03;;
54909;SDS011;63189;51.240;9.964;2024-01-16T06:28:42;10.20;;;3.00;;
54909;SDS011;63189;51.240;9.964;2024-01-16T06:31:08;13.15;;;3.30;;
54909;SDS011;63189;51.240;9.964;2024-01-16T06:33:34;8.32;;;3.20;;
54909;SDS011;63189;51.240;9.964;2024-01-16T06:35:59;6.93;;;3.33;;
54909;SDS011;63189;51.240;9.964;2024-01-16T06:38:25;9.32;;;3.28;;
54909;SDS011;63189;51.240;9.964;2024-01-16T06:40:50;9.18;;;3.30;;
54909;SDS011;63189;51.240;9.964;2024-01-16T06:43:15;8.40;;;3.20;;
54909;SDS011;63189;51.240;9.964;2024-01-16T06:45:44;7.78;;;3.15;;
54909;SDS011;63189;51.240;9.964;2024-01-16T06:48:09;9.02;;;3.53;;
54909;SDS011;63189;51.240;9.964;2024-01-16T06:50:35;7.03;;;3.25;;
54909;SDS011;63189;51.240;9.964;2024-01-16T06:53:01;5.53;;;2.70;;
54909;SDS011;63189;51.240;9.964;2024-01-16T06:55:26;7.43;;;3.13;;
54909;SDS011;63189;51.240;9.964;2024-01-16T06:57:52;8.20;;;2.67;;
54909;SDS011;63189;51.240;9.964;2024-01-16T07:00:17;9.18;;;2.85;;
54909;SDS011;63189;51.240;9.964;2024-01-16T07:02:43;8.65;;;3.45;;
54909;SDS011;63189;51.240;9.964;2024-01-16T07:05:09;5.63;;;3.15;;
54909;SDS011;63189;51.240;9.964;2024-01-16T07:07:35;5.65;;;2.67;;
54909;SDS011;63189;51.240;9.964;2024-01-16T07:10:00;9.25;;;3.25;;
54909;SDS011;63189;51.240;9.964;2024-01-16T07:12:25;5.25;;;2.60;;
54909;SDS011;63189;51.240;9.964;2024-01-16T07:14:51;8.13;;;3.15;;
54909;SDS011;63189;51.240;9.964;2024-01-16T07:17:16;8.20;;;3.08;;
54909;SDS011;63189;51.240;9.964;2024-01-16T07:19:42;6.75;;;3.00;;
54909;SDS011;63189;51.240;9.964;2024-01-16T07:22:07;4.65;;;2.35;;
54909;SDS011;63189;51.240;9.964;2024-01-16T07:24:32;11.27;;;2.95;;
54909;SDS011;63189;51.240;9.964;2024-01-16T07:26:58;6.07;;;2.72;;
54909;SDS011;63189;51.240;9.964;2024-01-16T07:29:23;5.75;;;2.67;;
54909;SDS011;63189;51.240;9.964;2024-01-16T07:31:48;4.13;;;2.47;;
54909;SDS011;63189;51.240;9.964;2024-01-16T07:34:14;7.30;;;3.08;;
54909;SDS011;63189;51.240;9.964;2024-01-16T07:36:44;6.35;;;3.20;;
54909;SDS011;63189;51.240;9.964;2024-01-16T07:39:10;8.23;;;2.70;;
54909;SDS011;63189;51.240;9.964;2024-01-16T07:41:35;5.60;;;2.72;;
54909;SDS011;63189;51.240;9.964;2024-01-16T07:44:01;4.43;;;2.65;;
54909;SDS011;63189;51.240;9.964;2024-01-16T07:46:27;7.18;;;3.13;;
54909;SDS011;63189;51.240;9.964;2024-01-16T07:48:53;8.93;;;3.85;;
54909;SDS011;63189;51.240;9.964;2024-01-16T07:51:19;7.25;;;2.83;;
54909;SDS011;63189;51.240;9.964;2024-01-16T07:53:44;9.68;;;3.90;;
54909;SDS011;63189;51.240;9.964;2024-01-16T07:56:10;9.30;;;3.17;;
54909;SDS011;63189;51.240;9.964;2024-01-16T07:58:36;8.13;;;2.97;;
54909;SDS011;63189;51.240;9.964;2024-01-16T08:01:02;9.90;;;3.05;;
54909;SDS011;63189;51.240;9.964;2024-01-16T08:03:27;7.10;;;3.40;;
54909;SDS011;63189;51.240;9.964;2024-01-16T08:05:53;9.52;;;3.92;;
54909;SDS011;63189;51.240;9.964;2024-01-16T08:08:19;8.50;;;3.10;;
54909;SDS011;63189;51.240;9.964;2024-01-16T08:10:44;9.18;;;3.60;;
54909;SDS011;63189;51.240;9.964;2024-01-16T08:13:09;8.05;;;4.00;;
54909;SDS011;63189;51.240;9.964;2024-01-16T08:15:35;9.10;;;3.70;;
54909;SDS011;63189;51.240;9.964;2024-01-16T08:18:01;6.55;;;3.65;;
54909;SDS011;63189;51.240;9.964;2024-01-16T08:20:26;7.82;;;3.60;;
54909;SDS011;63189;51.240;9.964;2024-01-16T08:22:51;12.35;;;4.35;;
54909;SDS011;63189;51.240;9.964;2024-01-16T08:25:18;7.93;;;3.63;;
54909;SDS011;63189;51.240;9.964;2024-01-16T08:27:43;7.57;;;3.95;;
54909;SDS011;63189;51.240;9.964;2024-01-16T08:30:09;6.75;;;3.33;;
54909;SDS011;63189;51.240;9.964;2024-01-16T08:32:36;8.20;;;4.05;;
54909;SDS011;63189;51.240;9.964;2024-01-16T08:35:01;7.45;;;4.45;;
54909;SDS011;63189;51.240;9.964;2024-01-16T08:37:27;7.88;;;4.30;;
54909;SDS011;63189;51.240;9.964;2024-01-16T08:39:53;11.15;;;4.93;;
54909;SDS011;63189;51.240;9.964;2024-01-16T08:42:18;12.38;;;4.65;;
54909;SDS011;63189;51.240;9.964;2024-01-16T08:44:44;12.07;;;5.20;;
54909;SDS011;63189;51.240;9.964;2024-01-16T08:47:09;8.07;;;4.18;;
54909;SDS011;63189;51.240;9.964;2024-01-16T08:49:35;8.93;;;4.45;;
54909;SDS011;63189;51.240;9.964;2024-01-16T08:52:00;12.52;;;5.32;;
54909;SDS011;63189;51.240;9.964;2024-01-16T08:54:27;11.77;;;6.13;;
54909;SDS011;63189;51.240;9.964;2024-01-16T08:56:53;11.80;;;6.15;;
54909;SDS011;63189;51.240;9.964;2024-01-16T08:59:18;12.57;;;6.30;;
54909;SDS011;63189;51.240;9.964;2024-01-16T09:01:43;11.88;;;6.50;;
54909;SDS011;63189;51.240;9.964;2024-01-16T09:04:09;13.80;;;7.28;;
54909;SDS011;63189;51.240;9.964;2024-01-16T09:06:34;11.82;;;5.80;;
54909;SDS011;63189;51.240;9.964;2024-01-16T09:09:00;10.73;;;6.38;;
54909;SDS011;63189;51.240;9.964;2024-01-16T09:11:25;27.33;;;15.65;;
54909;SDS011;63189;51.240;9.964;2024-01-16T09:13:51;10.65;;;7.07;;
54909;SDS011;63189;51.240;9.964;2024-01-16T09:16:16;11.95;;;6.72;;
54909;SDS011;63189;51.240;9.964;2024-01-16T09:18:42;14.10;;;8.07;;
54909;SDS011;63189;51.240;9.964;2024-01-16T09:21:07;11.02;;;7.25;;
54909;SDS011;63189;51.240;9.964;2024-01-16T09:23:33;11.82;;;6.55;;
54909;SDS011;63189;51.240;9.964;2024-01-16T09:25:58;13.48;;;7.95;;
54909;SDS011;63189;51.240;9.964;2024-01-16T09:28:24;14.18;;;7.72;;
54909;SDS011;63189;51.240;9.964;2024-01-16T09:30:49;12.70;;;7.93;;
54909;SDS011;63189;51.240;9.964;2024-01-16T09:33:15;15.35;;;7.72;;
54909;SDS011;63189;51.240;9.964;2024-01-16T09:35:41;14.50;;;7.80;;
54909;SDS011;63189;51.240;9.964;2024-01-16T09:38:07;15.02;;;7.68;;
54909;SDS011;63189;51.240;9.964;2024-01-16T09:40:33;11.50;;;7.78;;
54909;SDS011;63189;51.240;9.964;2024-01-16T09:43:00;12.30;;;7.75;;
54909;SDS011;63189;51.240;9.964;2024-01-16T09:45:26;15.07;;;6.38;;
54909;SDS011;63189;51.240;9.964;2024-01-16T09:47:54;11.93;;;6.75;;
54909;SDS011;63189;51.240;9.964;2024-01-16T09:50:21;11.70;;;7.22;;
54909;SDS011;63189;51.240;9.964;2024-01-16T09:52:47;11.15;;;6.95;;
54909;SDS011;63189;51.240;9.964;2024-01-16T09:55:13;9.18;;;6.95;;
54909;SDS011;63189;51.240;9.964;2024-01-16T09:57:40;11.18;;;6.50;;
54909;SDS011;63189;51.240;9.964;2024-01-16T10:00:09;9.82;;;7.13;;
54909;SDS011;63189;51.240;9.964;2024-01-16T10:02:37;13.15;;;6.70;;
54909;SDS011;63189;51.240;9.964;2024-01-16T10:05:07;13.25;;;6.93;;
54909;SDS011;63189;51.240;9.964;2024-01-16T10:07:40;13.55;;;7.40;;
54909;SDS011;63189;51.240;9.964;2024-01-16T10:10:06;9.80;;;6.80;;
54909;SDS011;63189;51.240;9.964;2024-01-16T10:12:36;13.25;;;6.90;;
54909;SDS011;63189;51.240;9.964;2024-01-16T10:15:04;11.35;;;6.70;;
54909;SDS011;63189;51.240;9.964;2024-01-16T10:17:38;10.93;;;6.90;;
54909;SDS011;63189;51.240;9.964;2024-01-16T10:20:04;11.23;;;7.18;;
54909;SDS011;63189;51.240;9.964;2024-01-16T10:22:30;10.88;;;6.97;;
54909;SDS011;63189;51.240;9.964;2024-01-16T10:25:05;10.88;;;7.38;;
54909;SDS011;63189;51.240;9.964;2024-01-16T10:27:32;12.40;;;7.20;;
54909;SDS011;63189;51.240;9.964;2024-01-16T10:29:59;11.60;;;7.45;;
54909;SDS011;63189;51.240;9.964;2024-01-16T10:32:27;11.98;;;7.10;;
54909;SDS011;63189;51.240;9.964;2024-01-16T10:35:09;14.05;;;7.60;;
54909;SDS011;63189;51.240;9.964;2024-01-16T10:43:00;12.38;;;6.20;;
54909;SDS011;63189;51.240;9.964;2024-01-16T10:45:26;11.57;;;6.65;;
54909;SDS011;63189;51.240;9.964;2024-01-16T10:48:11;10.88;;;6.30;;
54909;SDS011;63189;51.240;9.964;2024-01-16T10:50:37;11.38;;;6.38;;
54909;SDS011;63189;51.240;9.964;2024-01-16T10:53:04;11.63;;;6.40;;
54909;SDS011;63189;51.240;9.964;2024-01-16T10:55:30;9.20;;;5.43;;
54909;SDS011;63189;51.240;9.964;2024-01-16T10:57:58;8.32;;;5.35;;
54909;SDS011;63189;51.240;9.964;2024-01-16T11:00:28;13.63;;;6.43;;
54909;SDS011;63189;51.240;9.964;2024-01-16T11:02:58;12.65;;;5.97;;
54909;SDS011;63189;51.240;9.964;2024-01-16T11:05:29;12.25;;;6.18;;
54909;SDS011;63189;51.240;9.964;2024-01-16T11:07:58;15.52;;;6.20;;
54909;SDS011;63189;51.240;9.964;2024-01-16T11:10:26;11.35;;;5.57;;
54909;SDS011;63189;51.240;9.964;2024-01-16T11:12:52;14.98;;;7.18;;
54909;SDS011;63189;51.240;9.964;2024-01-16T11:15:18;13.45;;;6.18;;
54909;SDS011;63189;51.240;9.964;2024-01-16T11:17:44;14.93;;;6.85;;
54909;SDS011;63189;51.240;9.964;2024-01-16T11:20:11;12.10;;;5.93;;
54909;SDS011;63189;51.240;9.964;2024-01-16T11:22:39;10.70;;;7.13;;
54909;SDS011;63189;51.240;9.964;2024-01-16T11:25:10;11.75;;;7.03;;
54909;SDS011;63189;51.240;9.964;2024-01-16T11:27:37;12.15;;;6.10;;
54909;SDS011;63189;51.240;9.964;2024-01-16T11:30:07;8.52;;;5.20;;
54909;SDS011;63189;51.240;9.964;2024-01-16T11:32:35;11.75;;;6.10;;
54909;SDS011;63189;51.240;9.964;2024-01-16T11:35:04;10.93;;;5.68;;
54909;SDS011;63189;51.240;9.964;2024-01-16T11:37:30;9.00;;;5.50;;
54909;SDS011;63189;51.240;9.964;2024-01-16T11:42:42;9.15;;;6.13;;
54909;SDS011;63189;51.240;9.964;2024-01-16T11:45:08;9.13;;;5.32;;
54909;SDS011;63189;51.240;9.964;2024-01-16T11:48:29;10.80;;;5.55;;
54909;SDS011;63189;51.240;9.964;2024-01-16T11:50:47;9.25;;;5.18;;
54909;SDS011;63189;51.240;9.964;2024-01-16T12:01:06;8.10;;;5.15;;
54909;SDS011;63189;51.240;9.964;2024-01-16T12:03:32;7.85;;;5.38;;
54909;SDS011;63189;51.240;9.964;2024-01-16T12:05:58;9.05;;;5.80;;
54909;SDS011;63189;51.240;9.964;2024-01-16T12:08:24;9.23;;;5.28;;
54909;SDS011;63189;51.240;9.964;2024-01-16T12:10:49;9.82;;;5.38;;
54909;SDS011;63189;51.240;9.964;2024-01-16T12:13:15;11.02;;;5.38;;
54909;SDS011;63189;51.240;9.964;2024-01-16T12:15:40;15.60;;;5.88;;
54909;SDS011;63189;51.240;9.964;2024-01-16T12:18:06;9.80;;;5.75;;
54909;SDS011;63189;51.240;9.964;2024-01-16T12:20:36;11.60;;;6.28;;
54909;SDS011;63189;51.240;9.964;2024-01-16T12:25:29;9.63;;;5.63;;
54909;SDS011;63189;51.240;9.964;2024-01-16T12:27:59;10.40;;;5.30;;
54909;SDS011;63189;51.240;9.964;2024-01-16T12:30:26;10.38;;;5.63;;
54909;SDS011;63189;51.240;9.964;2024-01-16T12:33:03;11.10;;;6.05;;
54909;SDS011;63189;51.240;9.964;2024-01-16T12:35:41;10.60;;;5.70;;
54909;SDS011;63189;51.240;9.964;2024-01-16T12:38:10;10.77;;;6.28;;
54909;SDS011;63189;51.240;9.964;2024-01-16T12:40:42;10.70;;;6.90;;
54909;SDS011;63189;51.240;9.964;2024-01-16T12:43:08;10.90;;;5.57;;
54909;SDS011;63189;51.240;9.964;2024-01-16T12:45:37;10.73;;;5.97;;
54909;SDS011;63189;51.240;9.964;2024-01-16T12:48:03;10.60;;;5.30;;
54909;SDS011;63189;51.240;9.964;2024-01-16T12:50:29;12.52;;;6.35;;
54909;SDS011;63189;51.240;9.964;2024-01-16T12:53:12;9.45;;;5.75;;
54909;SDS011;63189;51.240;9.964;2024-01-16T12:55:38;12.55;;;6.45;;
54909;SDS011;63189;51.240;9.964;2024-01-16T12:58:38;13.73;;;6.68;;
54909;SDS011;63189;51.240;9.964;2024-01-16T13:01:20;10.20;;;6.18;;
54909;SDS011;63189;51.240;9.964;2024-01-16T13:03:52;10.43;;;7.00;;
54909;SDS011;63189;51.240;9.964;2024-01-16T13:06:19;14.20;;;7.57;;
54909;SDS011;63189;51.240;9.964;2024-01-16T13:08:48;12.60;;;7.05;;
54909;SDS011;63189;51.240;9.964;2024-01-16T13:11:15;11.75;;;6.53;;
54909;SDS011;63189;51.240;9.964;2024-01-16T13:13:44;9.65;;;6.10;;
54909;SDS011;63189;51.240;9.964;2024-01-16T13:16:10;10.73;;;6.40;;
54909;SDS011;63189;51.240;9.964;2024-01-16T13:18:36;10.80;;;6.53;;
54909;SDS011;63189;51.240;9.964;2024-01-16T13:21:02;14.95;;;6.85;;
54909;SDS011;63189;51.240;9.964;2024-01-16T13:23:27;11.02;;;6.15;;
54909;SDS011;63189;51.240;9.964;2024-01-16T13:25:54;8.20;;;5.13;;
54909;SDS011;63189;51.240;9.964;2024-01-16T13:28:24;12.43;;;5.93;;
54909;SDS011;63189;51.240;9.964;2024-01-16T13:30:50;9.35;;;5.63;;
54909;SDS011;63189;51.240;9.964;2024-01-16T13:33:15;12.27;;;6.55;;
54909;SDS011;63189;51.240;9.964;2024-01-16T13:35:42;11.85;;;6.43;;
54909;SDS011;63189;51.240;9.964;2024-01-16T13:38:09;13.20;;;5.82;;
54909;SDS011;63189;51.240;9.964;2024-01-16T13:40:35;6.97;;;5.22;;
54909;SDS011;63189;51.240;9.964;2024-01-16T13:43:01;6.38;;;3.80;;
54909;SDS011;63189;51.240;9.964;2024-01-16T13:45:27;8.10;;;4.55;;
54909;SDS011;63189;51.240;9.964;2024-01-16T13:47:53;6.55;;;4.70;;
54909;SDS011;63189;51.240;9.964;2024-01-16T13:50:21;7.10;;;4.43;;
54909;SDS011;63189;51.240;9.964;2024-01-16T13:52:47;6.40;;;4.30;;
54909;SDS011;63189;51.240;9.964;2024-01-16T13:55:13;7.60;;;4.70;;
54909;SDS011;63189;51.240;9.964;2024-01-16T13:57:38;8.23;;;4.82;;
54909;SDS011;63189;51.240;9.964;2024-01-16T14:00:05;8.32;;;4.90;;
54909;SDS011;63189;51.240;9.964;2024-01-16T14:02:38;7.13;;;4.22;;
54909;SDS011;63189;51.240;9.964;2024-01-16T14:05:17;7.53;;;4.32;;
54909;SDS011;63189;51.240;9.964;2024-01-16T14:07:44;7.15;;;4.90;;
54909;SDS011;63189;51.240;9.964;2024-01-16T14:10:11;7.55;;;4.60;;
54909;SDS011;63189;51.240;9.964;2024-01-16T14:12:41;7.75;;;4.57;;
54909;SDS011;63189;51.240;9.964;2024-01-16T14:15:14;8.05;;;4.72;;
54909;SDS011;63189;51.240;9.964;2024-01-16T14:17:45;8.57;;;4.45;;
54909;SDS011;63189;51.240;9.964;2024-01-16T14:20:11;13.98;;;5.28;;
54909;SDS011;63189;51.240;9.964;2024-01-16T14:22:37;6.93;;;4.78;;
54909;SDS011;63189;51.240;9.964;2024-01-16T14:25:03;8.98;;;4.50;;
54909;SDS011;63189;51.240;9.964;2024-01-16T14:27:36;7.72;;;4.35;;
54909;SDS011;63189;51.240;9.964;2024-01-16T14:30:04;6.32;;;3.60;;
54909;SDS011;63189;51.240;9.964;2024-01-16T14:32:32;7.32;;;3.60;;
54909;SDS011;63189;51.240;9.964;2024-01-16T14:34:57;7.28;;;3.20;;
54909;SDS011;63189;51.240;9.964;2024-01-16T14:37:23;7.55;;;3.55;;
54909;SDS011;63189;51.240;9.964;2024-01-16T14:39:49;7.25;;;3.70;;
54909;SDS011;63189;51.240;9.964;2024-01-16T14:42:14;5.35;;;3.38;;
54909;SDS011;63189;51.240;9.964;2024-01-16T14:44:39;5.90;;;3.25;;
54909;SDS011;63189;51.240;9.964;2024-01-16T14:47:05;4.95;;;3.00;;
54909;SDS011;63189;51.240;9.964;2024-01-16T14:49:30;6.07;;;3.33;;
54909;SDS011;63189;51.240;9.964;2024-01-16T14:51:57;7.50;;;3.55;;
54909;SDS011;63189;51.240;9.964;2024-01-16T14:54:24;7.32;;;3.33;;
54909;SDS011;63189;51.240;9.964;2024-01-16T14:56:49;6.32;;;2.85;;
54909;SDS011;63189;51.240;9.964;2024-01-16T14:59:15;5.90;;;3.25;;